createdAt,value
2022-11-10T00:00:01.421Z,96999.75
2022-11-10T00:02:48.660Z,96990.03
2022-11-10T00:05:38.273Z,97001.66
2022-11-10T00:08:24.952Z,96997.34
2022-11-10T00:11:12.862Z,97008.03
2022-11-10T00:14:19.146Z,96997.78
2022-11-10T00:17:05.749Z,97004.97
2022-11-10T00:19:52.514Z,97006.06
2022-11-10T00:22:40.199Z,97009.97
2022-11-10T00:25:27.570Z,97012.84
2022-11-10T00:28:15.631Z,97016.44
2022-11-10T00:31:06.924Z,97012.84
2022-11-10T00:33:53.389Z,97012.84
2022-11-10T00:36:40.011Z,97023.53
2022-11-10T00:39:26.716Z,97027.09
2022-11-10T00:42:13.502Z,97024.47
2022-11-10T00:45:01.459Z,97020.97
2022-11-10T00:47:47.735Z,97025.75
2022-11-10T00:50:34.412Z,97032.84
2022-11-10T00:53:21.317Z,97027.66
2022-11-10T00:56:07.943Z,97036.06
2022-11-10T00:58:54.514Z,97036.25
2022-11-10T01:01:42.448Z,97037.53
2022-11-10T01:04:28.757Z,97052.97
2022-11-10T01:07:15.651Z,97064.63
2022-11-10T01:10:02.331Z,97066.41
2022-11-10T01:12:48.928Z,97066.63
2022-11-10T01:15:35.592Z,97062.41
2022-11-10T01:18:23.510Z,97075.59
2022-11-10T01:21:10.955Z,97074.75
2022-11-10T01:23:58.385Z,97079.81
2022-11-10T01:26:45.146Z,97084.16
2022-11-10T01:29:31.793Z,97084.25
2022-11-10T01:32:18.597Z,97079.22
2022-11-10T01:35:07.868Z,97089.03
2022-11-10T01:37:54.779Z,97075.00
2022-11-10T01:40:41.180Z,97081.44
2022-11-10T01:43:29.594Z,97096.31
2022-11-10T01:46:16.355Z,97093.06
2022-11-10T01:49:04.718Z,97098.44
2022-11-10T01:51:55.766Z,97106.88
2022-11-10T01:54:47.634Z,97115.97
2022-11-10T01:57:34.638Z,97108.06
2022-11-10T02:00:21.938Z,97107.31
2022-11-10T02:03:13.256Z,97105.72
2022-11-10T02:06:00.178Z,97114.50
2022-11-10T02:08:48.441Z,97107.41
2022-11-10T02:11:36.853Z,97108.47
2022-11-10T02:14:23.635Z,97110.59
2022-11-10T02:17:10.715Z,97102.97
2022-11-10T02:20:04.732Z,97116.41
2022-11-10T02:22:52.881Z,97124.81
2022-11-10T02:25:39.454Z,97130.09
2022-11-10T02:28:27.573Z,97132.34
2022-11-10T02:31:14.469Z,97129.88
2022-11-10T02:34:00.966Z,97123.84
2022-11-10T02:39:49.864Z,97138.50
2022-11-10T02:42:36.186Z,97137.44
2022-11-10T02:45:22.820Z,97152.44
2022-11-10T02:48:09.797Z,97148.41
2022-11-10T02:50:56.793Z,97155.97
2022-11-10T02:53:43.863Z,97163.88
2022-11-10T02:56:31.722Z,97166.94
2022-11-10T02:59:18.101Z,97168.19
2022-11-10T03:02:04.761Z,97166.03
2022-11-10T03:04:51.316Z,97169.22
2022-11-10T03:07:38.069Z,97177.72
2022-11-10T03:10:25.147Z,97188.47
2022-11-10T03:13:14.299Z,97189.41
2022-11-10T03:16:00.896Z,97189.72
2022-11-10T03:18:47.418Z,97189.91
2022-11-10T03:21:34.087Z,97195.94
2022-11-10T03:24:20.648Z,97195.88
2022-11-10T03:27:07.670Z,97205.13
2022-11-10T03:29:55.541Z,97214.91
2022-11-10T03:32:42.395Z,97208.78
2022-11-10T03:35:29.198Z,97215.31
2022-11-10T03:38:16.040Z,97218.44
2022-11-10T03:41:19.862Z,97231.13
2022-11-10T03:44:07.842Z,97219.97
2022-11-10T03:46:55.871Z,97227.59
2022-11-10T03:49:42.555Z,97232.09
2022-11-10T03:52:28.985Z,97235.19
2022-11-10T03:55:18.597Z,97229.34
2022-11-10T03:58:06.062Z,97238.53
2022-11-10T04:00:54.745Z,97239.88
2022-11-10T04:03:43.134Z,97250.25
2022-11-10T04:06:49.741Z,97251.56
2022-11-10T04:09:36.637Z,97249.47
2022-11-10T04:12:40.513Z,97252.84
2022-11-10T04:15:45.768Z,97257.72
2022-11-10T04:18:32.234Z,97271.97
2022-11-10T04:21:20.233Z,97270.56
2022-11-10T04:24:07.223Z,97272.53
2022-11-10T04:26:53.926Z,97272.63
2022-11-10T04:29:41.023Z,97286.88
2022-11-10T04:32:27.622Z,97292.34
2022-11-10T04:35:14.175Z,97292.34
2022-11-10T04:38:02.724Z,97292.34
2022-11-10T04:40:49.695Z,97296.75
2022-11-10T04:43:36.380Z,97296.69
2022-11-10T04:46:25.117Z,97302.19
2022-11-10T04:49:12.109Z,97284.72
2022-11-10T04:51:59.059Z,97295.25
2022-11-10T04:54:47.145Z,97313.09
2022-11-10T04:57:33.726Z,97335.66
2022-11-10T05:00:21.031Z,97333.09
2022-11-10T05:03:10.739Z,97327.06
2022-11-10T05:05:57.006Z,97324.44
2022-11-10T05:08:44.854Z,97325.66
2022-11-10T05:11:32.652Z,97329.03
2022-11-10T05:14:19.383Z,97338.22
2022-11-10T05:17:05.874Z,97347.38
2022-11-10T05:19:52.899Z,97354.66
2022-11-10T05:22:39.780Z,97351.16
2022-11-10T05:25:26.217Z,97348.19
2022-11-10T05:28:14.111Z,97353.59
2022-11-10T05:31:01.154Z,97360.41
2022-11-10T05:33:47.728Z,97362.56
2022-11-10T05:36:34.301Z,97361.03
2022-11-10T05:39:20.834Z,97372.31
2022-11-10T05:42:07.964Z,97372.31
2022-11-10T05:44:55.597Z,97369.09
2022-11-10T05:47:43.309Z,97372.13
2022-11-10T05:50:30.208Z,97368.13
2022-11-10T05:53:16.711Z,97370.91
2022-11-10T05:56:03.185Z,97366.28
2022-11-10T05:58:49.438Z,97369.44
2022-11-10T06:01:37.559Z,97381.81
2022-11-10T06:04:24.236Z,97385.38
2022-11-10T06:07:11.923Z,97382.81
2022-11-10T06:09:58.685Z,97382.38
2022-11-10T06:12:46.643Z,97397.91
2022-11-10T06:15:34.266Z,97407.94
2022-11-10T06:18:22.293Z,97425.91
2022-11-10T06:21:08.652Z,97419.81
2022-11-10T06:23:55.270Z,97427.16
2022-11-10T06:26:42.087Z,97427.88
2022-11-10T06:29:28.549Z,97424.53
2022-11-10T06:32:15.251Z,97435.13
2022-11-10T06:35:03.226Z,97443.31
2022-11-10T06:38:00.683Z,97457.50
2022-11-10T06:40:47.598Z,97469.56
2022-11-10T06:43:33.996Z,97469.41
2022-11-10T06:46:20.200Z,97478.16
2022-11-10T06:49:07.352Z,97484.38
2022-11-10T06:51:55.026Z,97492.03
2022-11-10T06:54:41.679Z,97501.84
2022-11-10T06:57:28.661Z,97512.81
2022-11-10T07:00:17.962Z,97510.97
2022-11-10T07:03:06.567Z,97516.16
2022-11-10T07:05:53.042Z,97526.22
2022-11-10T07:08:40.918Z,97538.00
2022-11-10T07:11:27.257Z,97542.19
2022-11-10T07:14:13.921Z,97540.03
2022-11-10T07:17:00.906Z,97547.91
2022-11-10T07:19:47.479Z,97549.31
2022-11-10T07:22:34.365Z,97553.28
2022-11-10T07:25:22.427Z,97561.00
2022-11-10T07:28:10.615Z,97558.53
2022-11-10T07:30:57.000Z,97572.06
2022-11-10T07:33:44.093Z,97573.00
2022-11-10T07:36:30.749Z,97578.09
2022-11-10T07:39:17.390Z,97581.34
2022-11-10T07:42:05.511Z,97581.88
2022-11-10T07:44:52.316Z,97584.28
2022-11-10T07:47:38.690Z,97588.47
2022-11-10T07:50:25.367Z,97600.53
2022-11-10T07:53:13.491Z,97593.16
2022-11-10T07:56:00.362Z,97592.03
2022-11-10T07:58:49.520Z,97591.19
2022-11-10T08:01:36.010Z,97602.31
2022-11-10T08:04:22.778Z,97610.75
2022-11-10T08:07:09.603Z,97614.75
2022-11-10T08:09:56.155Z,97611.88
2022-11-10T08:12:42.603Z,97606.53
2022-11-10T08:15:31.875Z,97617.41
2022-11-10T08:18:20.692Z,97611.78
2022-11-10T08:21:07.684Z,97620.19
2022-11-10T08:23:54.840Z,97624.22
2022-11-10T08:26:42.162Z,97623.81
2022-11-10T08:29:28.950Z,97628.91
2022-11-10T08:32:17.119Z,97630.03
2022-11-10T08:35:03.867Z,97628.09
2022-11-10T08:37:50.238Z,97626.97
2022-11-10T08:40:37.035Z,97625.56
2022-11-10T08:43:23.890Z,97629.63
2022-11-10T08:46:10.886Z,97633.63
2022-11-10T08:48:58.852Z,97635.84
2022-11-10T08:51:45.689Z,97641.88
2022-11-10T08:54:32.030Z,97648.50
2022-11-10T08:57:18.669Z,97646.50
2022-11-10T09:00:06.598Z,97655.03
2022-11-10T09:02:53.195Z,97665.22
2022-11-10T09:05:41.911Z,97663.94
2022-11-10T09:08:28.527Z,97662.00
2022-11-10T09:11:15.171Z,97669.63
2022-11-10T09:14:01.795Z,97673.97
2022-11-10T09:16:48.240Z,97670.22
2022-11-10T09:19:34.939Z,97678.84
2022-11-10T09:22:22.787Z,97672.94
2022-11-10T09:25:10.227Z,97678.03
2022-11-10T09:27:56.875Z,97679.41
2022-11-10T09:30:46.308Z,97677.16
2022-11-10T09:33:32.878Z,97685.47
2022-11-10T09:36:19.512Z,97699.16
2022-11-10T09:39:08.372Z,97692.69
2022-11-10T09:41:54.896Z,97706.41
2022-11-10T09:44:51.356Z,97712.31
2022-11-10T09:47:56.751Z,97713.75
2022-11-10T09:50:50.450Z,97712.75
2022-11-10T09:53:41.537Z,97716.81
2022-11-10T09:56:33.794Z,97717.03
2022-11-10T09:59:26.656Z,97727.31
2022-11-10T10:02:23.742Z,97729.56
2022-11-10T10:05:46.444Z,97736.38
2022-11-10T10:08:45.566Z,97734.50
2022-11-10T10:11:44.799Z,97735.09
2022-11-10T10:14:52.663Z,97728.56
2022-11-10T10:17:45.907Z,97734.34
2022-11-10T10:20:41.904Z,97727.09
2022-11-10T10:24:07.085Z,97724.44
2022-11-10T10:26:49.855Z,97714.38
2022-11-10T10:29:40.911Z,97723.69
2022-11-10T10:32:28.202Z,97715.50
2022-11-10T10:35:16.359Z,97725.09
2022-11-10T10:38:05.308Z,97729.25
2022-11-10T10:40:53.981Z,97725.50
2022-11-10T10:43:43.456Z,97730.41
2022-11-10T10:46:35.775Z,97730.34
2022-11-10T10:49:29.009Z,97734.41
2022-11-10T10:52:17.437Z,97732.41
2022-11-10T10:55:09.687Z,97732.41
2022-11-10T10:58:01.179Z,97729.84
2022-11-10T11:00:51.725Z,97724.28
2022-11-10T11:03:43.888Z,97714.16
2022-11-10T11:06:32.157Z,97716.81
2022-11-10T11:09:23.854Z,97717.78
2022-11-10T11:12:14.178Z,97720.22
2022-11-10T11:15:15.126Z,97730.78
2022-11-10T11:18:11.885Z,97731.63
2022-11-10T11:21:03.608Z,97731.06
2022-11-10T11:24:07.313Z,97724.72
2022-11-10T11:27:00.538Z,97721.34
2022-11-10T11:30:02.751Z,97718.31
2022-11-10T11:33:21.390Z,97728.31
2022-11-10T11:36:21.815Z,97725.66
2022-11-10T11:39:20.490Z,97723.56
2022-11-10T11:42:17.606Z,97722.63
2022-11-10T11:45:21.562Z,97721.75
2022-11-10T11:48:34.592Z,97722.34
2022-11-10T11:51:29.545Z,97721.38
2022-11-10T11:54:38.198Z,97721.84
2022-11-10T11:57:38.804Z,97727.03
2022-11-10T12:00:26.918Z,97721.63
2022-11-10T12:03:35.443Z,97720.50
2022-11-10T12:06:34.294Z,97722.47
2022-11-10T12:09:31.325Z,97718.97
2022-11-10T12:12:38.419Z,97714.66
2022-11-10T12:15:34.549Z,97716.78
2022-11-10T12:18:31.453Z,97718.47
2022-11-10T12:21:38.102Z,97710.66
2022-11-10T12:24:38.398Z,97717.75
2022-11-10T12:27:28.695Z,97720.09
2022-11-10T12:30:17.449Z,97713.34
2022-11-10T12:33:08.568Z,97710.91
2022-11-10T12:35:56.273Z,97707.94
2022-11-10T12:38:59.546Z,97707.00
2022-11-10T12:41:49.724Z,97707.13
2022-11-10T12:44:40.514Z,97699.03
2022-11-10T12:47:31.503Z,97701.31
2022-11-10T12:50:29.604Z,97701.31
2022-11-10T12:53:22.957Z,97700.75
2022-11-10T12:56:18.856Z,97702.66
2022-11-10T12:59:26.308Z,97699.63
2022-11-10T13:02:24.748Z,97697.69
2022-11-10T13:05:29.177Z,97708.50
2022-11-10T13:08:27.929Z,97712.94
2022-11-10T13:11:28.829Z,97716.34
2022-11-10T13:14:24.623Z,97725.66
2022-11-10T13:17:49.691Z,97730.97
2022-11-10T13:20:52.129Z,97728.09
2022-11-10T13:24:18.245Z,97732.69
2022-11-10T13:27:11.294Z,97732.47
2022-11-10T13:29:59.683Z,97735.88
2022-11-10T13:32:46.034Z,97732.16
2022-11-10T13:35:55.467Z,97726.75
2022-11-10T13:38:44.323Z,97718.81
2022-11-10T13:41:34.716Z,97721.38
2022-11-10T13:44:26.275Z,97725.81
2022-11-10T13:47:37.142Z,97725.81
2022-11-10T13:50:35.172Z,97735.66
2022-11-10T13:53:33.868Z,97746.25
2022-11-10T13:56:36.650Z,97743.59
2022-11-10T13:59:27.299Z,97741.03
2022-11-10T14:02:56.214Z,97746.25
2022-11-10T14:06:09.103Z,97744.56
2022-11-10T14:09:00.691Z,97746.47
2022-11-10T14:11:50.687Z,97743.06
2022-11-10T14:14:50.343Z,97749.19
2022-11-10T14:17:42.621Z,97747.22
2022-11-10T14:20:34.732Z,97751.00
2022-11-10T14:23:26.994Z,97745.81
2022-11-10T14:26:23.163Z,97752.16
2022-11-10T14:29:29.755Z,97754.25
2022-11-10T14:32:22.255Z,97762.75
2022-11-10T14:35:20.567Z,97766.34
2022-11-10T14:38:20.407Z,97761.91
2022-11-10T14:41:08.261Z,97762.75
2022-11-10T14:44:03.337Z,97768.47
2022-11-10T14:46:49.734Z,97762.72
2022-11-10T14:49:37.738Z,97765.06
2022-11-10T14:52:24.243Z,97773.84
2022-11-10T14:55:17.233Z,97769.78
2022-11-10T14:58:11.730Z,97776.88
2022-11-10T15:00:58.065Z,97778.75
2022-11-10T15:03:45.015Z,97780.47
2022-11-10T15:06:33.653Z,97787.59
2022-11-10T15:09:28.327Z,97778.03
2022-11-10T15:12:29.769Z,97783.63
2022-11-10T15:15:20.963Z,97789.94
2022-11-10T15:18:08.286Z,97784.94
2022-11-10T15:21:02.102Z,97786.28
2022-11-10T15:23:57.910Z,97799.06
2022-11-10T15:26:44.590Z,97802.09
2022-11-10T15:29:31.941Z,97807.88
2022-11-10T15:32:21.141Z,97811.84
2022-11-10T15:35:09.788Z,97811.28
2022-11-10T15:38:01.365Z,97817.78
2022-11-10T15:40:51.346Z,97814.66
2022-11-10T15:43:37.927Z,97817.78
2022-11-10T15:46:27.293Z,97819.19
2022-11-10T15:49:20.819Z,97813.69
2022-11-10T15:52:14.791Z,97814.88
2022-11-10T15:55:01.568Z,97818.75
2022-11-10T15:57:49.686Z,97828.75
2022-11-10T16:00:35.910Z,97833.28
2022-11-10T16:03:24.434Z,97834.97
2022-11-10T16:06:13.626Z,97837.59
2022-11-10T16:09:00.588Z,97832.69
2022-11-10T16:11:47.364Z,97829.88
2022-11-10T16:14:35.367Z,97834.31
2022-11-10T16:17:22.112Z,97842.41
2022-11-10T16:20:14.922Z,97839.88
2022-11-10T16:23:01.335Z,97843.97
2022-11-10T16:25:50.403Z,97853.75
2022-11-10T16:28:36.655Z,97851.31
2022-11-10T16:31:24.547Z,97859.88
2022-11-10T16:34:13.743Z,97861.06
2022-11-10T16:39:43.559Z,97873.16
2022-11-10T16:42:29.741Z,97874.53
2022-11-10T16:45:18.285Z,97880.91
2022-11-10T16:48:08.136Z,97882.44
2022-11-10T16:50:56.683Z,97883.72
2022-11-10T16:53:43.305Z,97882.34
2022-11-10T16:56:31.052Z,97887.88
2022-11-10T16:59:18.008Z,97886.56
2022-11-10T17:02:04.810Z,97888.59
2022-11-10T17:04:51.353Z,97896.94
2022-11-10T17:07:39.339Z,97899.81
2022-11-10T17:10:26.092Z,97896.94
2022-11-10T17:13:14.433Z,97902.09
2022-11-10T17:16:06.225Z,97906.59
2022-11-10T17:18:52.977Z,97904.22
2022-11-10T17:21:40.053Z,97900.66
2022-11-10T17:24:26.828Z,97905.06
2022-11-10T17:27:13.433Z,97898.06
2022-11-10T17:30:01.445Z,97910.22
2022-11-10T17:33:05.510Z,97902.97
2022-11-10T17:35:54.489Z,97901.38
2022-11-10T17:38:42.007Z,97903.38
2022-11-10T17:41:29.049Z,97917.00
2022-11-10T17:44:17.947Z,97923.44
2022-11-10T17:47:05.769Z,97927.09
2022-11-10T17:49:52.690Z,97925.84
2022-11-10T17:52:39.313Z,97936.31
2022-11-10T17:55:33.801Z,97931.22
2022-11-10T17:58:20.599Z,97932.28
2022-11-10T18:01:12.175Z,97938.47
2022-11-10T18:04:00.446Z,97939.34
2022-11-10T18:06:47.314Z,97936.84
2022-11-10T18:09:33.964Z,97930.94
2022-11-10T18:12:25.282Z,97932.81
2022-11-10T18:15:15.309Z,97945.50
2022-11-10T18:18:01.650Z,97941.31
2022-11-10T18:20:50.161Z,97946.03
2022-11-10T18:23:36.922Z,97940.19
2022-11-10T18:26:23.275Z,97956.22
2022-11-10T18:29:09.919Z,97950.31
2022-11-10T18:31:56.463Z,97949.47
2022-11-10T18:34:45.639Z,97958.44
2022-11-10T18:37:39.068Z,97964.06
2022-11-10T18:40:26.692Z,97964.50
2022-11-10T18:43:13.188Z,97974.88
2022-11-10T18:45:59.740Z,97963.75
2022-11-10T18:48:47.011Z,97964.91
2022-11-10T18:51:33.532Z,97962.44
2022-11-10T18:54:21.524Z,97972.38
2022-11-10T18:57:08.374Z,97965.50
2022-11-10T18:59:54.866Z,97964.63
2022-11-10T19:02:43.115Z,97975.22
2022-11-10T19:05:30.111Z,97971.88
2022-11-10T19:08:17.242Z,97969.38
2022-11-10T19:11:08.798Z,97962.69
2022-11-10T19:13:55.595Z,97961.13
2022-11-10T19:16:42.027Z,97955.00
2022-11-10T19:19:28.669Z,97954.22
2022-11-10T19:22:15.084Z,97946.41
2022-11-10T19:25:08.299Z,97952.00
2022-11-10T19:27:57.619Z,97960.56
2022-11-10T19:30:43.822Z,97957.25
2022-11-10T19:33:31.952Z,97970.41
2022-11-10T19:36:21.024Z,97974.88
2022-11-10T19:39:07.580Z,97975.03
2022-11-10T19:41:54.048Z,97972.53
2022-11-10T19:44:42.077Z,97985.16
2022-11-10T19:47:28.566Z,97988.91
2022-11-10T19:50:15.328Z,97977.53
2022-11-10T19:53:02.054Z,97984.00
2022-11-10T19:55:48.973Z,97975.13
2022-11-10T19:58:36.992Z,97972.69
2022-11-10T20:01:25.006Z,97968.34
2022-11-10T20:04:12.628Z,97971.16
2022-11-10T20:07:12.980Z,97978.28
2022-11-10T20:10:00.278Z,97981.09
2022-11-10T20:12:47.062Z,97981.22
2022-11-10T20:15:33.677Z,97983.78
2022-11-10T20:18:21.818Z,97981.47
2022-11-10T20:21:10.331Z,97981.34
2022-11-10T20:23:57.875Z,97984.03
2022-11-10T20:26:44.219Z,97990.25
2022-11-10T20:29:31.066Z,97999.00
2022-11-10T20:32:17.655Z,98000.31
2022-11-10T20:35:06.004Z,97992.56
2022-11-10T20:37:52.534Z,97994.59
2022-11-10T20:40:44.545Z,98007.78
2022-11-10T20:43:34.490Z,98002.66
2022-11-10T20:46:48.441Z,98013.53
2022-11-10T20:49:29.444Z,98012.84
2022-11-10T20:52:18.039Z,98024.28
2022-11-10T20:55:05.481Z,98024.16
2022-11-10T20:57:52.188Z,98027.13
2022-11-10T21:00:38.818Z,98032.38
2022-11-10T21:03:25.803Z,98031.63
2022-11-10T21:06:12.764Z,98027.28
2022-11-10T21:09:00.682Z,98028.50
2022-11-10T21:12:05.124Z,98044.38
2022-11-10T21:14:51.566Z,98034.00
2022-11-10T21:17:43.851Z,98034.00
2022-11-10T21:20:33.799Z,98020.09
2022-11-10T21:23:20.496Z,98017.50
2022-11-10T21:26:09.210Z,98009.75
2022-11-10T21:28:56.105Z,98003.13
2022-11-10T21:31:42.927Z,98004.13
2022-11-10T21:34:29.475Z,98009.63
2022-11-10T21:37:16.273Z,98020.09
2022-11-10T21:40:02.754Z,98022.72
2022-11-10T21:42:55.230Z,98023.63
2022-11-10T21:45:42.026Z,98020.03
2022-11-10T21:48:28.590Z,98024.44
2022-11-10T21:51:15.537Z,98023.75
2022-11-10T21:54:01.911Z,98010.81
2022-11-10T21:56:48.972Z,98001.47
2022-11-10T21:59:36.776Z,98005.78
2022-11-10T22:02:23.552Z,98003.91
2022-11-10T22:05:10.302Z,97992.31
2022-11-10T22:07:56.842Z,97988.91
2022-11-10T22:11:01.066Z,97991.47
2022-11-10T22:14:05.487Z,97989.88
2022-11-10T22:17:11.566Z,97996.22
2022-11-10T22:19:58.254Z,97990.13
2022-11-10T22:22:45.311Z,97988.31
2022-11-10T22:25:32.172Z,97987.41
2022-11-10T22:28:21.320Z,97991.91
2022-11-10T22:31:09.578Z,97982.25
2022-11-10T22:33:57.525Z,97987.59
2022-11-10T22:36:44.035Z,97986.91
2022-11-10T22:39:44.392Z,97986.06
2022-11-10T22:42:48.614Z,97985.06
2022-11-10T22:45:35.467Z,97992.78
2022-11-10T22:48:28.382Z,97993.03
2022-11-10T22:51:16.326Z,97981.91
2022-11-10T22:54:04.049Z,97990.97
2022-11-10T22:56:51.556Z,97997.81
2022-11-10T22:59:38.436Z,98005.78
2022-11-10T23:02:25.104Z,98001.56
2022-11-10T23:05:11.665Z,98006.88
2022-11-10T23:07:59.266Z,98004.28
2022-11-10T23:10:45.846Z,98000.88
2022-11-10T23:13:34.062Z,97998.53
2022-11-10T23:16:22.583Z,97998.69
2022-11-10T23:19:11.569Z,97990.03
2022-11-10T23:21:57.761Z,97982.44
2022-11-10T23:24:45.788Z,97985.06
2022-11-10T23:27:34.165Z,97999.97
2022-11-10T23:30:20.438Z,98005.28
2022-11-10T23:33:06.911Z,98011.44
2022-11-10T23:35:53.742Z,98012.41
2022-11-10T23:38:41.172Z,98022.75
2022-11-10T23:41:29.184Z,98026.78
2022-11-10T23:44:15.827Z,98019.94
2022-11-10T23:47:02.334Z,98019.25
2022-11-10T23:49:48.959Z,98009.03
2022-11-10T23:52:35.621Z,98017.59
2022-11-10T23:55:22.727Z,98011.75
2022-11-10T23:58:11.038Z,98016.34
